sensor_id;sensor_type;location;lat;lon;timestamp;pressure;altitude;pressure_sealevel;temperature;humidity
83100;BME280;72972;51.784;4.660;2024-03-07T00:00:57;102775.63;;;6.08;92.38
83100;BME280;72972;51.784;4.660;2024-03-07T00:03:25;102772.19;;;6.06;92.54
83100;BME280;72972;51.784;4.660;2024-03-07T00:05:51;102778.22;;;6.10;92.55
83100;BME280;72972;51.784;4.660;2024-03-07T00:08:17;102771.91;;;5.98;92.97
83100;BME280;72972;51.784;4.660;2024-03-07T00:10:42;102775.75;;;5.96;93.34
83100;BME280;72972;51.784;4.660;2024-03-07T00:13:10;102775.13;;;5.92;93.76
83100;BME280;72972;51.784;4.660;2024-03-07T00:15:35;102776.00;;;5.93;93.09
83100;BME280;72972;51.784;4.660;2024-03-07T00:18:02;102773.16;;;5.94;93.41
83100;BME280;72972;51.784;4.660;2024-03-07T00:20:28;102773.34;;;5.91;93.78
83100;BME280;72972;51.784;4.660;2024-03-07T00:22:53;102774.22;;;5.92;93.74
83100;BME280;72972;51.784;4.660;2024-03-07T00:25:19;102774.97;;;5.83;93.74
83100;BME280;72972;51.784;4.660;2024-03-07T00:27:45;102775.41;;;5.77;93.90
83100;BME280;72972;51.784;4.660;2024-03-07T00:30:12;102780.97;;;5.75;93.85
83100;BME280;72972;51.784;4.660;2024-03-07T00:32:44;102779.34;;;5.73;94.19
83100;BME280;72972;51.784;4.660;2024-03-07T00:35:10;102771.56;;;5.79;93.98
83100;BME280;72972;51.784;4.660;2024-03-07T00:37:36;102774.03;;;5.71;94.04
83100;BME280;72972;51.784;4.660;2024-03-07T00:40:02;102768.84;;;5.79;93.80
83100;BME280;72972;51.784;4.660;2024-03-07T00:42:28;102768.09;;;5.77;94.04
83100;BME280;72972;51.784;4.660;2024-03-07T00:44:54;102766.72;;;5.72;93.03
83100;BME280;72972;51.784;4.660;2024-03-07T00:47:20;102764.97;;;5.71;93.32
83100;BME280;72972;51.784;4.660;2024-03-07T00:49:46;102761.63;;;5.67;93.65
83100;BME280;72972;51.784;4.660;2024-03-07T00:52:15;102767.94;;;5.68;93.31
83100;BME280;72972;51.784;4.660;2024-03-07T00:54:40;102757.19;;;5.66;93.72
83100;BME280;72972;51.784;4.660;2024-03-07T00:57:07;102755.69;;;5.62;92.83
83100;BME280;72972;51.784;4.660;2024-03-07T00:59:33;102759.50;;;5.60;92.60
83100;BME280;72972;51.784;4.660;2024-03-07T01:01:59;102756.41;;;5.53;93.42
83100;BME280;72972;51.784;4.660;2024-03-07T01:04:25;102755.53;;;5.53;93.93
83100;BME280;72972;51.784;4.660;2024-03-07T01:06:57;102759.56;;;5.47;93.63
83100;BME280;72972;51.784;4.660;2024-03-07T01:09:23;102756.13;;;5.45;93.15
83100;BME280;72972;51.784;4.660;2024-03-07T01:11:49;102760.56;;;5.46;93.43
83100;BME280;72972;51.784;4.660;2024-03-07T01:14:15;102751.63;;;5.44;93.59
83100;BME280;72972;51.784;4.660;2024-03-07T01:16:41;102751.63;;;5.44;94.35
83100;BME280;72972;51.784;4.660;2024-03-07T01:19:07;102756.94;;;5.34;94.53
83100;BME280;72972;51.784;4.660;2024-03-07T01:21:34;102759.66;;;5.34;95.09
83100;BME280;72972;51.784;4.660;2024-03-07T01:24:00;102758.78;;;5.34;94.86
83100;BME280;72972;51.784;4.660;2024-03-07T01:26:28;102749.84;;;5.32;95.56
83100;BME280;72972;51.784;4.660;2024-03-07T01:28:55;102748.13;;;5.31;95.22
83100;BME280;72972;51.784;4.660;2024-03-07T01:31:22;102746.41;;;5.30;94.42
83100;BME280;72972;51.784;4.660;2024-03-07T01:33:47;102749.34;;;5.27;94.29
83100;BME280;72972;51.784;4.660;2024-03-07T01:36:13;102743.38;;;5.22;94.79
83100;BME280;72972;51.784;4.660;2024-03-07T01:38:39;102738.59;;;5.25;94.73
83100;BME280;72972;51.784;4.660;2024-03-07T01:41:04;102748.94;;;5.20;94.55
83100;BME280;72972;51.784;4.660;2024-03-07T01:43:30;102742.63;;;5.20;94.31
83100;BME280;72972;51.784;4.660;2024-03-07T01:45:57;102747.56;;;5.15;95.11
83100;BME280;72972;51.784;4.660;2024-03-07T01:48:27;102742.31;;;5.12;95.37
83100;BME280;72972;51.784;4.660;2024-03-07T01:51:00;102729.84;;;5.09;95.15
83100;BME280;72972;51.784;4.660;2024-03-07T01:53:30;102734.69;;;5.17;95.43
83100;BME280;72972;51.784;4.660;2024-03-07T01:55:57;102735.94;;;5.13;95.37
83100;BME280;72972;51.784;4.660;2024-03-07T01:58:24;102732.22;;;5.14;95.00
83100;BME280;72972;51.784;4.660;2024-03-07T02:00:50;102729.06;;;5.07;96.07
83100;BME280;72972;51.784;4.660;2024-03-07T02:03:16;102730.38;;;5.14;95.47
83100;BME280;72972;51.784;4.660;2024-03-07T02:05:42;102723.88;;;5.04;96.00
83100;BME280;72972;51.784;4.660;2024-03-07T02:08:08;102716.38;;;5.08;95.56
83100;BME280;72972;51.784;4.660;2024-03-07T02:10:34;102727.47;;;5.05;95.75
83100;BME280;72972;51.784;4.660;2024-03-07T02:13:00;102714.22;;;5.00;96.72
83100;BME280;72972;51.784;4.660;2024-03-07T02:15:28;102719.19;;;5.06;96.65
83100;BME280;72972;51.784;4.660;2024-03-07T02:17:54;102715.00;;;5.02;96.11
83100;BME280;72972;51.784;4.660;2024-03-07T02:20:20;102715.00;;;5.02;96.90
83100;BME280;72972;51.784;4.660;2024-03-07T02:22:46;102722.50;;;4.99;95.69
83100;BME280;72972;51.784;4.660;2024-03-07T02:25:12;102712.72;;;4.96;95.90
83100;BME280;72972;51.784;4.660;2024-03-07T02:27:41;102716.03;;;4.89;96.42
83100;BME280;72972;51.784;4.660;2024-03-07T02:30:07;102720.28;;;4.80;95.96
83100;BME280;72972;51.784;4.660;2024-03-07T02:32:37;102713.88;;;4.81;96.50
83100;BME280;72972;51.784;4.660;2024-03-07T02:35:04;102706.81;;;4.79;96.30
83100;BME280;72972;51.784;4.660;2024-03-07T02:37:29;102709.41;;;4.80;96.05
83100;BME280;72972;51.784;4.660;2024-03-07T02:39:55;102713.00;;;4.81;96.20
83100;BME280;72972;51.784;4.660;2024-03-07T02:42:21;102703.34;;;4.77;96.06
83100;BME280;72972;51.784;4.660;2024-03-07T02:44:46;102708.78;;;4.77;96.62
83100;BME280;72972;51.784;4.660;2024-03-07T02:47:12;102694.97;;;4.80;96.56
83100;BME280;72972;51.784;4.660;2024-03-07T02:49:37;102702.47;;;4.76;95.94
83100;BME280;72972;51.784;4.660;2024-03-07T02:52:03;102700.78;;;4.63;96.99
83100;BME280;72972;51.784;4.660;2024-03-07T02:54:33;102700.25;;;4.58;97.67
83100;BME280;72972;51.784;4.660;2024-03-07T02:56:59;102694.59;;;4.61;97.29
83100;BME280;72972;51.784;4.660;2024-03-07T02:59:24;102697.00;;;4.53;97.65
83100;BME280;72972;51.784;4.660;2024-03-07T03:01:50;102692.56;;;4.52;97.90
83100;BME280;72972;51.784;4.660;2024-03-07T03:04:16;102689.84;;;4.52;98.16
83100;BME280;72972;51.784;4.660;2024-03-07T03:06:43;102686.13;;;4.53;97.94
83100;BME280;72972;51.784;4.660;2024-03-07T03:09:09;102677.75;;;4.56;97.78
83100;BME280;72972;51.784;4.660;2024-03-07T03:11:39;102695.50;;;4.49;98.09
83100;BME280;72972;51.784;4.660;2024-03-07T03:14:04;102682.16;;;4.33;99.08
83100;BME280;72972;51.784;4.660;2024-03-07T03:16:30;102685.06;;;4.43;99.06
83100;BME280;72972;51.784;4.660;2024-03-07T03:18:56;102682.38;;;4.43;99.24
83100;BME280;72972;51.784;4.660;2024-03-07T03:21:23;102679.22;;;4.36;98.95
83100;BME280;72972;51.784;4.660;2024-03-07T03:23:49;102675.81;;;4.45;99.10
83100;BME280;72972;51.784;4.660;2024-03-07T03:26:14;102682.69;;;4.38;99.05
83100;BME280;72972;51.784;4.660;2024-03-07T03:28:41;102678.16;;;4.39;98.81
83100;BME280;72972;51.784;4.660;2024-03-07T03:31:07;102675.53;;;4.37;99.62
83100;BME280;72972;51.784;4.660;2024-03-07T03:33:34;102674.56;;;4.38;99.65
83100;BME280;72972;51.784;4.660;2024-03-07T03:36:00;102671.06;;;4.36;98.96
83100;BME280;72972;51.784;4.660;2024-03-07T03:38:26;102677.50;;;4.35;99.69
83100;BME280;72972;51.784;4.660;2024-03-07T03:40:51;102671.19;;;4.35;99.90
83100;BME280;72972;51.784;4.660;2024-03-07T03:43:17;102669.78;;;4.29;99.35
83100;BME280;72972;51.784;4.660;2024-03-07T03:45:43;102660.13;;;4.25;99.61
83100;BME280;72972;51.784;4.660;2024-03-07T03:48:10;102666.09;;;4.30;99.40
83100;BME280;72972;51.784;4.660;2024-03-07T03:50:36;102664.78;;;4.36;99.22
83100;BME280;72972;51.784;4.660;2024-03-07T03:53:01;102662.06;;;4.36;99.23
83100;BME280;72972;51.784;4.660;2024-03-07T03:55:29;102660.97;;;4.38;99.25
83100;BME280;72972;51.784;4.660;2024-03-07T03:57:55;102660.06;;;4.50;99.18
83100;BME280;72972;51.784;4.660;2024-03-07T04:00:20;102656.91;;;4.44;98.69
83100;BME280;72972;51.784;4.660;2024-03-07T04:02:48;102659.41;;;4.47;99.32
83100;BME280;72972;51.784;4.660;2024-03-07T04:05:16;102656.19;;;4.42;99.35
83100;BME280;72972;51.784;4.660;2024-03-07T04:07:42;102652.94;;;4.37;99.02
83100;BME280;72972;51.784;4.660;2024-03-07T04:10:12;102654.88;;;4.35;99.99
83100;BME280;72972;51.784;4.660;2024-03-07T04:12:41;102655.19;;;4.43;99.04
83100;BME280;72972;51.784;4.660;2024-03-07T04:15:08;102654.44;;;4.41;99.09
83100;BME280;72972;51.784;4.660;2024-03-07T04:17:34;102652.94;;;4.37;99.72
83100;BME280;72972;51.784;4.660;2024-03-07T04:20:04;102647.06;;;4.43;99.79
83100;BME280;72972;51.784;4.660;2024-03-07T04:22:36;102657.25;;;4.39;99.36
83100;BME280;72972;51.784;4.660;2024-03-07T04:25:05;102652.16;;;4.35;99.15
83100;BME280;72972;51.784;4.660;2024-03-07T04:27:33;102651.41;;;4.33;99.44
83100;BME280;72972;51.784;4.660;2024-03-07T04:29:59;102645.25;;;4.31;98.73
83100;BME280;72972;51.784;4.660;2024-03-07T04:32:28;102648.69;;;4.33;99.56
83100;BME280;72972;51.784;4.660;2024-03-07T04:34:54;102649.03;;;4.28;99.38
83100;BME280;72972;51.784;4.660;2024-03-07T04:37:23;102644.94;;;4.23;99.92
83100;BME280;72972;51.784;4.660;2024-03-07T04:39:51;102653.28;;;4.20;100.00
83100;BME280;72972;51.784;4.660;2024-03-07T04:42:17;102646.03;;;4.20;99.54
83100;BME280;72972;51.784;4.660;2024-03-07T04:44:42;102650.47;;;4.21;99.70
83100;BME280;72972;51.784;4.660;2024-03-07T04:47:08;102645.50;;;4.15;100.00
83100;BME280;72972;51.784;4.660;2024-03-07T04:49:34;102640.50;;;4.22;99.95
83100;BME280;72972;51.784;4.660;2024-03-07T04:52:02;102645.69;;;4.25;99.51
83100;BME280;72972;51.784;4.660;2024-03-07T04:54:29;102645.38;;;4.17;99.79
83100;BME280;72972;51.784;4.660;2024-03-07T04:56:55;102644.09;;;4.10;99.98
83100;BME280;72972;51.784;4.660;2024-03-07T04:59:21;102651.78;;;4.16;99.63
83100;BME280;72972;51.784;4.660;2024-03-07T05:01:49;102647.22;;;4.16;99.96
83100;BME280;72972;51.784;4.660;2024-03-07T05:04:18;102641.78;;;4.16;99.54
83100;BME280;72972;51.784;4.660;2024-03-07T05:06:44;102641.91;;;4.15;99.73
83100;BME280;72972;51.784;4.660;2024-03-07T05:09:13;102639.19;;;4.15;100.00
83100;BME280;72972;51.784;4.660;2024-03-07T05:11:48;102639.06;;;4.16;99.73
83100;BME280;72972;51.784;4.660;2024-03-07T05:14:17;102642.78;;;4.15;100.00
83100;BME280;72972;51.784;4.660;2024-03-07T05:16:43;102646.06;;;4.08;99.88
83100;BME280;72972;51.784;4.660;2024-03-07T05:19:09;102652.34;;;4.08;100.00
83100;BME280;72972;51.784;4.660;2024-03-07T05:21:35;102641.28;;;4.11;99.87
83100;BME280;72972;51.784;4.660;2024-03-07T05:24:07;102647.88;;;4.07;99.83
83100;BME280;72972;51.784;4.660;2024-03-07T05:26:34;102648.09;;;4.17;100.00
83100;BME280;72972;51.784;4.660;2024-03-07T05:29:07;102649.53;;;4.10;100.00
83100;BME280;72972;51.784;4.660;2024-03-07T05:31:35;102634.53;;;4.04;99.58
83100;BME280;72972;51.784;4.660;2024-03-07T05:34:02;102649.31;;;4.13;100.00
83100;BME280;72972;51.784;4.660;2024-03-07T05:36:37;102641.94;;;4.02;99.65
83100;BME280;72972;51.784;4.660;2024-03-07T05:39:11;102634.66;;;4.03;99.37
83100;BME280;72972;51.784;4.660;2024-03-07T05:41:38;102641.84;;;4.04;99.92
83100;BME280;72972;51.784;4.660;2024-03-07T05:44:07;102644.31;;;4.07;99.69
83100;BME280;72972;51.784;4.660;2024-03-07T05:46:40;102645.50;;;4.03;99.69
83100;BME280;72972;51.784;4.660;2024-03-07T05:49:10;102649.22;;;4.02;99.60
83100;BME280;72972;51.784;4.660;2024-03-07T05:51:36;102643.56;;;4.05;99.22
83100;BME280;72972;51.784;4.660;2024-03-07T05:54:03;102648.88;;;4.06;98.84
83100;BME280;72972;51.784;4.660;2024-03-07T05:56:35;102641.94;;;4.02;98.75
83100;BME280;72972;51.784;4.660;2024-03-07T05:59:06;102643.00;;;4.00;98.91
83100;BME280;72972;51.784;4.660;2024-03-07T06:01:38;102643.69;;;3.91;98.88
83100;BME280;72972;51.784;4.660;2024-03-07T06:04:06;102639.75;;;3.95;99.23
83100;BME280;72972;51.784;4.660;2024-03-07T06:06:34;102643.13;;;3.86;99.54
83100;BME280;72972;51.784;4.660;2024-03-07T06:09:03;102636.31;;;3.93;98.70
83100;BME280;72972;51.784;4.660;2024-03-07T06:11:38;102642.41;;;3.84;99.18
83100;BME280;72972;51.784;4.660;2024-03-07T06:14:05;102636.84;;;3.85;99.56
83100;BME280;72972;51.784;4.660;2024-03-07T06:16:38;102634.47;;;3.81;98.78
83100;BME280;72972;51.784;4.660;2024-03-07T06:19:05;102644.88;;;3.87;98.87
83100;BME280;72972;51.784;4.660;2024-03-07T06:21:36;102642.06;;;3.76;99.28
83100;BME280;72972;51.784;4.660;2024-03-07T06:24:02;102629.50;;;3.75;98.65
83100;BME280;72972;51.784;4.660;2024-03-07T06:26:32;102631.00;;;3.79;98.97
83100;BME280;72972;51.784;4.660;2024-03-07T06:29:11;102626.34;;;3.81;98.40
83100;BME280;72972;51.784;4.660;2024-03-07T06:31:37;102635.97;;;3.85;97.95
83100;BME280;72972;51.784;4.660;2024-03-07T06:34:06;102634.53;;;3.92;98.26
83100;BME280;72972;51.784;4.660;2024-03-07T06:36:35;102636.19;;;4.07;97.75
83100;BME280;72972;51.784;4.660;2024-03-07T06:39:01;102639.22;;;4.51;96.40
83100;BME280;72972;51.784;4.660;2024-03-07T06:41:28;102626.91;;;4.81;93.87
83100;BME280;72972;51.784;4.660;2024-03-07T06:43:55;102627.75;;;5.05;91.59
83100;BME280;72972;51.784;4.660;2024-03-07T06:46:21;102630.81;;;4.77;92.54
83100;BME280;72972;51.784;4.660;2024-03-07T06:48:47;102629.94;;;4.53;93.81
83100;BME280;72972;51.784;4.660;2024-03-07T06:51:13;102630.72;;;4.55;94.14
83100;BME280;72972;51.784;4.660;2024-03-07T06:53:39;102606.38;;;5.80;88.81
83100;BME280;72972;51.784;4.660;2024-03-07T06:56:05;102615.75;;;6.84;84.01
83100;BME280;72972;51.784;4.660;2024-03-07T06:58:32;102597.41;;;7.39;80.98
83100;BME280;72972;51.784;4.660;2024-03-07T07:00:59;102596.25;;;7.92;78.17
83100;BME280;72972;51.784;4.660;2024-03-07T07:03:26;102585.59;;;8.77;75.06
83100;BME280;72972;51.784;4.660;2024-03-07T07:05:55;102587.88;;;9.01;72.60
83100;BME280;72972;51.784;4.660;2024-03-07T07:08:21;102578.66;;;9.21;71.56
83100;BME280;72972;51.784;4.660;2024-03-07T07:10:47;102588.22;;;9.63;70.45
83100;BME280;72972;51.784;4.660;2024-03-07T07:13:13;102580.00;;;9.63;70.15
83100;BME280;72972;51.784;4.660;2024-03-07T07:15:39;102576.75;;;9.87;68.56
83100;BME280;72972;51.784;4.660;2024-03-07T07:18:06;102580.63;;;10.30;66.67
83100;BME280;72972;51.784;4.660;2024-03-07T07:20:33;102570.44;;;11.03;64.12
83100;BME280;72972;51.784;4.660;2024-03-07T07:23:02;102560.06;;;11.40;62.62
83100;BME280;72972;51.784;4.660;2024-03-07T07:25:30;102561.31;;;11.88;60.96
83100;BME280;72972;51.784;4.660;2024-03-07T07:27:56;102552.63;;;11.75;60.67
83100;BME280;72972;51.784;4.660;2024-03-07T07:30:23;102564.53;;;11.84;59.90
83100;BME280;72972;51.784;4.660;2024-03-07T07:32:51;102543.19;;;11.52;60.84
83100;BME280;72972;51.784;4.660;2024-03-07T07:35:17;102544.16;;;11.94;59.51
83100;BME280;72972;51.784;4.660;2024-03-07T07:37:51;102533.88;;;12.54;57.90
83100;BME280;72972;51.784;4.660;2024-03-07T07:40:20;102528.44;;;12.94;57.12
83100;BME280;72972;51.784;4.660;2024-03-07T07:42:50;102535.81;;;12.94;56.73
83100;BME280;72972;51.784;4.660;2024-03-07T07:45:21;102549.63;;;13.02;56.36
83100;BME280;72972;51.784;4.660;2024-03-07T07:47:51;102610.91;;;11.18;60.99
83100;BME280;72972;51.784;4.660;2024-03-07T07:50:20;102610.34;;;9.43;68.68
83100;BME280;72972;51.784;4.660;2024-03-07T07:55:17;102625.19;;;8.34;74.26
83100;BME280;72972;51.784;4.660;2024-03-07T07:57:43;102611.34;;;7.96;76.58
83100;BME280;72972;51.784;4.660;2024-03-07T08:00:29;102621.41;;;7.65;77.94
83100;BME280;72972;51.784;4.660;2024-03-07T08:02:56;102615.81;;;7.46;78.67
83100;BME280;72972;51.784;4.660;2024-03-07T08:05:27;102603.13;;;7.36;79.73
83100;BME280;72972;51.784;4.660;2024-03-07T08:07:54;102614.13;;;7.13;80.37
83100;BME280;72972;51.784;4.660;2024-03-07T08:10:23;102613.63;;;7.19;80.32
83100;BME280;72972;51.784;4.660;2024-03-07T08:12:49;102612.78;;;7.19;80.86
83100;BME280;72972;51.784;4.660;2024-03-07T08:15:15;102615.28;;;7.11;80.89
83100;BME280;72972;51.784;4.660;2024-03-07T08:17:42;102612.78;;;7.19;81.17
83100;BME280;72972;51.784;4.660;2024-03-07T08:20:16;102614.41;;;7.10;79.83
83100;BME280;72972;51.784;4.660;2024-03-07T08:22:53;102600.72;;;7.22;80.88
83100;BME280;72972;51.784;4.660;2024-03-07T08:25:22;102596.25;;;7.21;79.90
83100;BME280;72972;51.784;4.660;2024-03-07T08:27:52;102598.19;;;7.30;80.26
83100;BME280;72972;51.784;4.660;2024-03-07T08:30:19;102601.59;;;7.22;78.74
83100;BME280;72972;51.784;4.660;2024-03-07T08:33:11;102594.06;;;7.14;78.26
83100;BME280;72972;51.784;4.660;2024-03-07T08:35:38;102596.31;;;7.09;78.38
83100;BME280;72972;51.784;4.660;2024-03-07T08:38:03;102599.03;;;7.09;78.15
83100;BME280;72972;51.784;4.660;2024-03-07T08:40:31;102600.91;;;7.09;78.28
83100;BME280;72972;51.784;4.660;2024-03-07T08:42:58;102602.31;;;7.24;78.00
83100;BME280;72972;51.784;4.660;2024-03-07T08:45:28;102589.53;;;7.25;78.00
83100;BME280;72972;51.784;4.660;2024-03-07T08:47:55;102601.03;;;7.49;79.56
83100;BME280;72972;51.784;4.660;2024-03-07T08:50:23;102592.59;;;7.31;77.42
83100;BME280;72972;51.784;4.660;2024-03-07T08:52:50;102587.31;;;7.39;77.21
83100;BME280;72972;51.784;4.660;2024-03-07T08:55:19;102593.38;;;7.43;77.88
83100;BME280;72972;51.784;4.660;2024-03-07T08:57:45;102589.78;;;7.42;76.51
83100;BME280;72972;51.784;4.660;2024-03-07T09:00:26;102588.06;;;7.41;77.21
83100;BME280;72972;51.784;4.660;2024-03-07T09:02:56;102588.13;;;7.51;76.58
83100;BME280;72972;51.784;4.660;2024-03-07T09:05:29;102593.69;;;7.70;75.19
83100;BME280;72972;51.784;4.660;2024-03-07T09:07:58;102607.25;;;7.51;74.14
83100;BME280;72972;51.784;4.660;2024-03-07T09:10:24;102595.03;;;7.55;74.45
83100;BME280;72972;51.784;4.660;2024-03-07T09:12:51;102579.66;;;7.54;74.10
83100;BME280;72972;51.784;4.660;2024-03-07T09:15:18;102584.31;;;7.63;73.85
83100;BME280;72972;51.784;4.660;2024-03-07T09:17:47;102582.63;;;7.71;73.80
83100;BME280;72972;51.784;4.660;2024-03-07T09:20:14;102585.31;;;7.62;71.20
83100;BME280;72972;51.784;4.660;2024-03-07T09:22:41;102581.94;;;7.49;72.50
83100;BME280;72972;51.784;4.660;2024-03-07T09:25:08;102591.84;;;7.50;73.12
83100;BME280;72972;51.784;4.660;2024-03-07T09:27:34;102585.59;;;7.59;74.22
83100;BME280;72972;51.784;4.660;2024-03-07T09:30:00;102587.13;;;7.52;72.79
83100;BME280;72972;51.784;4.660;2024-03-07T09:32:25;102598.59;;;7.76;73.97
83100;BME280;72972;51.784;4.660;2024-03-07T09:34:53;102579.63;;;7.74;72.58
83100;BME280;72972;51.784;4.660;2024-03-07T09:37:20;102580.13;;;7.89;72.42
83100;BME280;72972;51.784;4.660;2024-03-07T09:39:47;102577.50;;;7.78;70.80
83100;BME280;72972;51.784;4.660;2024-03-07T09:42:17;102577.94;;;7.83;70.35
83100;BME280;72972;51.784;4.660;2024-03-07T09:44:43;102575.03;;;7.75;70.44
83100;BME280;72972;51.784;4.660;2024-03-07T09:47:12;102578.53;;;7.86;70.41
83100;BME280;72972;51.784;4.660;2024-03-07T09:49:39;102585.31;;;7.92;70.21
83100;BME280;72972;51.784;4.660;2024-03-07T09:52:07;102573.44;;;8.02;70.97
83100;BME280;72972;51.784;4.660;2024-03-07T09:54:38;102567.63;;;8.26;70.37
83100;BME280;72972;51.784;4.660;2024-03-07T09:57:06;102563.31;;;8.23;70.59
83100;BME280;72972;51.784;4.660;2024-03-07T09:59:36;102569.66;;;8.24;69.04
83100;BME280;72972;51.784;4.660;2024-03-07T10:02:06;102559.56;;;8.24;69.84
83100;BME280;72972;51.784;4.660;2024-03-07T10:04:38;102559.59;;;8.34;69.76
83100;BME280;72972;51.784;4.660;2024-03-07T10:07:07;102548.13;;;8.49;69.66
83100;BME280;72972;51.784;4.660;2024-03-07T10:09:38;102559.63;;;8.43;69.72
83100;BME280;72972;51.784;4.660;2024-03-07T10:12:06;102556.75;;;8.54;68.81
83100;BME280;72972;51.784;4.660;2024-03-07T10:14:38;102550.00;;;8.58;68.37
83100;BME280;72972;51.784;4.660;2024-03-07T10:17:05;102559.34;;;8.46;68.34
83100;BME280;72972;51.784;4.660;2024-03-07T10:19:31;102547.66;;;8.44;68.16
83100;BME280;72972;51.784;4.660;2024-03-07T10:21:57;102550.66;;;8.22;68.81
83100;BME280;72972;51.784;4.660;2024-03-07T10:24:25;102546.38;;;8.39;69.89
83100;BME280;72972;51.784;4.660;2024-03-07T10:26:51;102548.50;;;8.35;68.56
83100;BME280;72972;51.784;4.660;2024-03-07T10:29:17;102542.50;;;8.51;68.46
83100;BME280;72972;51.784;4.660;2024-03-07T10:31:44;102540.78;;;8.59;67.36
83100;BME280;72972;51.784;4.660;2024-03-07T10:34:11;102538.63;;;8.63;66.43
83100;BME280;72972;51.784;4.660;2024-03-07T10:36:40;102531.84;;;8.67;66.10
83100;BME280;72972;51.784;4.660;2024-03-07T10:39:09;102540.06;;;8.57;65.64
83100;BME280;72972;51.784;4.660;2024-03-07T10:41:46;102542.94;;;8.56;66.45
83100;BME280;72972;51.784;4.660;2024-03-07T10:46:52;102527.41;;;8.66;66.11
83100;BME280;72972;51.784;4.660;2024-03-07T10:49:19;102527.69;;;8.63;66.66
83100;BME280;72972;51.784;4.660;2024-03-07T10:52:00;102529.72;;;8.80;66.16
83100;BME280;72972;51.784;4.660;2024-03-07T10:57:34;102524.66;;;8.75;65.70
83100;BME280;72972;51.784;4.660;2024-03-07T11:00:27;102517.06;;;8.79;65.25
83100;BME280;72972;51.784;4.660;2024-03-07T11:02:56;102523.38;;;8.89;66.86
83100;BME280;72972;51.784;4.660;2024-03-07T11:05:26;102519.47;;;8.91;65.14
83100;BME280;72972;51.784;4.660;2024-03-07T11:08:01;102519.59;;;9.00;64.84
83100;BME280;72972;51.784;4.660;2024-03-07T11:10:53;102519.16;;;9.23;63.32
83100;BME280;72972;51.784;4.660;2024-03-07T11:13:20;102511.41;;;9.09;63.82
83100;BME280;72972;51.784;4.660;2024-03-07T11:15:48;102512.66;;;9.15;64.41
83100;BME280;72972;51.784;4.660;2024-03-07T11:18:16;102502.47;;;9.07;62.21
83100;BME280;72972;51.784;4.660;2024-03-07T11:20:43;102504.22;;;8.99;62.14
83100;BME280;72972;51.784;4.660;2024-03-07T11:23:30;102496.69;;;9.20;62.50
83100;BME280;72972;51.784;4.660;2024-03-07T11:26:03;102490.88;;;9.32;61.60
83100;BME280;72972;51.784;4.660;2024-03-07T11:28:34;102497.66;;;9.28;60.98
83100;BME280;72972;51.784;4.660;2024-03-07T11:31:15;102490.75;;;9.24;60.85
83100;BME280;72972;51.784;4.660;2024-03-07T11:34:15;102491.28;;;9.37;61.89
83100;BME280;72972;51.784;4.660;2024-03-07T11:36:45;102482.97;;;9.29;61.84
83100;BME280;72972;51.784;4.660;2024-03-07T11:39:46;102480.47;;;9.36;62.25
83100;BME280;72972;51.784;4.660;2024-03-07T11:42:26;102473.44;;;9.33;62.08
83100;BME280;72972;51.784;4.660;2024-03-07T11:44:54;102475.59;;;9.30;62.17
83100;BME280;72972;51.784;4.660;2024-03-07T11:47:25;102474.41;;;9.42;62.50
83100;BME280;72972;51.784;4.660;2024-03-07T11:49:55;102462.72;;;9.49;62.27
83100;BME280;72972;51.784;4.660;2024-03-07T11:52:24;102452.72;;;9.58;60.19
83100;BME280;72972;51.784;4.660;2024-03-07T11:54:49;102451.66;;;9.68;60.51
83100;BME280;72972;51.784;4.660;2024-03-07T11:57:18;102447.25;;;9.58;60.05
83100;BME280;72972;51.784;4.660;2024-03-07T11:59:59;102450.00;;;9.58;61.73
83100;BME280;72972;51.784;4.660;2024-03-07T12:02:46;102438.69;;;9.70;61.79
83100;BME280;72972;51.784;4.660;2024-03-07T12:05:14;102445.63;;;9.65;60.74
83100;BME280;72972;51.784;4.660;2024-03-07T12:07:43;102434.72;;;9.55;61.38
83100;BME280;72972;51.784;4.660;2024-03-07T12:10:11;102426.38;;;9.57;61.08
83100;BME280;72972;51.784;4.660;2024-03-07T12:12:37;102419.19;;;9.46;61.69
83100;BME280;72972;51.784;4.660;2024-03-07T12:15:07;102414.94;;;9.61;61.07
83100;BME280;72972;51.784;4.660;2024-03-07T12:17:45;102398.06;;;9.66;59.69
83100;BME280;72972;51.784;4.660;2024-03-07T12:20:16;102393.66;;;9.55;61.23
83100;BME280;72972;51.784;4.660;2024-03-07T12:23:19;102402.00;;;9.81;61.91
83100;BME280;72972;51.784;4.660;2024-03-07T12:25:47;102421.31;;;9.79;60.32
83100;BME280;72972;51.784;4.660;2024-03-07T12:28:14;102406.00;;;9.59;60.56
83100;BME280;72972;51.784;4.660;2024-03-07T12:33:13;102386.00;;;9.76;60.92
83100;BME280;72972;51.784;4.660;2024-03-07T12:35:49;102384.25;;;10.02;59.51
83100;BME280;72972;51.784;4.660;2024-03-07T12:38:21;102376.34;;;10.17;58.71
83100;BME280;72972;51.784;4.660;2024-03-07T12:41:08;102375.50;;;10.16;57.47
83100;BME280;72972;51.784;4.660;2024-03-07T12:43:40;102373.78;;;10.15;59.54
83100;BME280;72972;51.784;4.660;2024-03-07T12:46:12;102384.47;;;9.91;56.31
83100;BME280;72972;51.784;4.660;2024-03-07T12:48:39;102365.19;;;9.83;57.01
83100;BME280;72972;51.784;4.660;2024-03-07T12:51:06;102363.16;;;10.03;56.72
83100;BME280;72972;51.784;4.660;2024-03-07T12:53:32;102350.34;;;10.21;56.87
83100;BME280;72972;51.784;4.660;2024-03-07T12:56:00;102348.00;;;10.26;57.13
83100;BME280;72972;51.784;4.660;2024-03-07T12:58:28;102352.38;;;10.36;56.23
83100;BME280;72972;51.784;4.660;2024-03-07T13:00:56;102339.13;;;10.49;57.25
83100;BME280;72972;51.784;4.660;2024-03-07T13:03:23;102330.50;;;10.44;55.97
83100;BME280;72972;51.784;4.660;2024-03-07T13:05:53;102330.75;;;10.33;57.05
83100;BME280;72972;51.784;4.660;2024-03-07T13:08:20;102334.97;;;9.93;56.72
83100;BME280;72972;51.784;4.660;2024-03-07T13:10:51;102330.97;;;10.05;57.38
83100;BME280;72972;51.784;4.660;2024-03-07T13:13:17;102335.22;;;10.34;57.11
83100;BME280;72972;51.784;4.660;2024-03-07T13:15:43;102332.09;;;10.29;56.35
83100;BME280;72972;51.784;4.660;2024-03-07T13:18:13;102329.75;;;10.34;58.04